Time;durP1;ratioP1;P1;durP2;ratioP2;P2;SDS_P1;SDS_P2;PMS_P1;PMS_P2;Temp;Humidity;BMP_temperature;BMP_pressure;BME280_temperature;BME280_humidity;BME280_pressure;Samples;Min_cycle;Max_cycle;Signal;HPM_P1;HPM_P2
2023/03/15 00:01:54;;;;;;;4.90;1.27;;;1.80;99.90;;;;;;5056755;28;20588;-66
2023/03/15 00:04:21;;;;;;;5.50;1.40;;;1.90;99.90;;;;;;5077749;27;20213;-66
2023/03/15 00:06:48;;;;;;;2.83;1.10;;;1.90;99.90;;;;;;5086902;27;20550;-66
2023/03/15 00:09:14;;;;;;;3.03;1.10;;;1.90;99.90;;;;;;5050973;27;20207;-66
2023/03/15 00:11:41;;;;;;;5.37;2.07;;;1.60;99.90;;;;;;5076436;27;20330;-66
2023/03/15 00:14:08;;;;;;;9.40;1.67;;;2.00;99.90;;;;;;5067966;28;20209;-66
2023/03/15 00:16:35;;;;;;;7.33;2.00;;;2.00;99.90;;;;;;5045893;28;20548;-66
2023/03/15 00:19:03;;;;;;;4.83;1.40;;;2.00;99.90;;;;;;5080459;27;20923;-66
2023/03/15 00:21:30;;;;;;;12.37;1.90;;;2.00;99.90;;;;;;5085078;27;20207;-66
2023/03/15 00:23:57;;;;;;;5.13;1.13;;;2.00;99.90;;;;;;5065478;27;20205;-66
2023/03/15 00:26:24;;;;;;;1.13;0.90;;;2.00;99.90;;;;;;5056844;27;20803;-66
2023/03/15 00:28:51;;;;;;;3.03;1.23;;;2.00;99.90;;;;;;5069039;27;20758;-66
2023/03/15 00:31:19;;;;;;;5.50;1.30;;;2.00;99.90;;;;;;5063206;27;20209;-65
2023/03/15 00:33:46;;;;;;;4.00;1.47;;;1.80;99.90;;;;;;5043805;27;20212;-66
2023/03/15 00:36:15;;;;;;;4.23;1.37;;;1.80;99.90;;;;;;5077227;27;20203;-66
2023/03/15 00:38:43;;;;;;;4.87;1.37;;;2.00;99.90;;;;;;5064151;28;20648;-66
2023/03/15 00:41:12;;;;;;;5.10;1.30;;;1.90;99.90;;;;;;5051503;27;20231;-66
2023/03/15 00:43:39;;;;;;;12.07;2.00;;;1.80;99.90;;;;;;5069993;27;20205;-66
2023/03/15 00:46:06;;;;;;;2.70;1.20;;;1.80;99.90;;;;;;5073338;27;20194;-66
2023/03/15 00:48:34;;;;;;;2.80;1.23;;;1.80;99.90;;;;;;5046158;28;20202;-66
2023/03/15 00:51:03;;;;;;;3.53;1.40;;;1.80;99.90;;;;;;5076047;28;20263;-66
2023/03/15 00:53:32;;;;;;;6.83;1.40;;;1.90;99.90;;;;;;5073115;28;20737;-66
2023/03/15 00:56:03;;;;;;;2.73;1.10;;;1.90;99.90;;;;;;5059247;27;20327;-66
2023/03/15 00:58:30;;;;;;;6.73;1.27;;;2.00;99.90;;;;;;5084191;27;20203;-66
2023/03/15 01:00:57;;;;;;;4.57;1.80;;;2.00;99.90;;;;;;5072135;28;20363;-66
2023/03/15 01:03:24;;;;;;;4.63;1.60;;;;;;;;;;5054295;27;20209;-66
2023/03/15 01:05:51;;;;;;;5.27;1.37;;;2.00;99.90;;;;;;5073736;27;20351;-66
2023/03/15 01:08:17;;;;;;;4.97;1.50;;;2.00;99.90;;;;;;5082291;28;20865;-66
2023/03/15 01:10:46;;;;;;;4.67;1.53;;;2.00;99.90;;;;;;5057500;27;20704;-66
2023/03/15 01:13:12;;;;;;;5.87;1.57;;;2.00;99.90;;;;;;5073990;28;20603;-66
2023/03/15 01:15:40;;;;;;;5.73;1.80;;;2.10;99.90;;;;;;5073482;28;20239;-66
2023/03/15 01:18:07;;;;;;;7.97;1.80;;;2.10;99.90;;;;;;5051149;27;20206;-66
2023/03/15 01:20:34;;;;;;;6.17;1.80;;;2.10;99.90;;;;;;5072379;27;20594;-66
2023/03/15 01:23:00;;;;;;;8.77;1.87;;;2.10;99.90;;;;;;5078265;27;20401;-66
2023/03/15 01:25:27;;;;;;;7.83;2.10;;;2.10;99.90;;;;;;5079008;27;20197;-66
2023/03/15 01:27:55;;;;;;;9.30;1.83;;;2.10;99.90;;;;;;5053290;27;20754;-66
2023/03/15 01:30:22;;;;;;;3.73;1.50;;;2.10;99.90;;;;;;5080672;27;20195;-66
2023/03/15 01:32:49;;;;;;;10.03;1.90;;;2.10;99.90;;;;;;5047470;27;20540;-66
2023/03/15 01:35:16;;;;;;;6.20;1.70;;;2.10;99.90;;;;;;5080724;28;20216;-66
2023/03/15 01:37:43;;;;;;;8.70;1.87;;;2.20;99.90;;;;;;5078875;27;20200;-66
2023/03/15 01:40:13;;;;;;;5.57;2.13;;;2.10;99.90;;;;;;5076780;27;20224;-66
2023/03/15 01:42:52;;;;;;;4.63;1.60;;;2.10;99.90;;;;;;5055550;27;20580;-66
2023/03/15 01:46:08;;;;;;;11.43;1.53;;;2.10;99.90;;;;;;5075711;28;20280;-66
2023/03/15 01:48:43;;;;;;;8.60;1.33;;;2.10;99.90;;;;;;4986439;28;20836;-66
2023/03/15 01:51:16;;;;;;;3.63;1.23;;;2.10;99.90;;;;;;5060094;28;20298;-66
2023/03/15 01:53:47;;;;;;;10.10;1.87;;;2.10;99.90;;;;;;5079421;28;20197;-66
2023/03/15 01:56:15;;;;;;;5.00;1.50;;;2.10;99.90;;;;;;5076483;28;20188;-66
2023/03/15 01:58:44;;;;;;;7.87;1.83;;;2.10;99.90;;;;;;5058233;28;20204;-67
2023/03/15 02:01:13;;;;;;;7.10;1.23;;;2.10;99.90;;;;;;5078443;28;20363;-66
2023/03/15 02:03:46;;;;;;;6.73;1.27;;;2.10;99.90;;;;;;5051509;28;20232;-66
2023/03/15 02:06:17;;;;;;;2.63;1.47;;;2.10;99.90;;;;;;5076113;27;20198;-66
2023/03/15 02:08:49;;;;;;;4.87;1.60;;;2.10;99.90;;;;;;5081969;27;20200;-66
2023/03/15 02:11:18;;;;;;;3.77;1.20;;;2.10;99.90;;;;;;5085346;28;20880;-66
2023/03/15 02:13:47;;;;;;;2.40;1.27;;;2.20;99.90;;;;;;5071203;27;20222;-66
2023/03/15 02:16:15;;;;;;;2.57;1.07;;;2.10;99.90;;;;;;5079096;28;20728;-66
2023/03/15 02:18:43;;;;;;;5.47;1.27;;;2.10;99.90;;;;;;5078006;28;20199;-66
2023/03/15 02:21:22;;;;;;;2.43;1.13;;;2.10;99.90;;;;;;5042281;28;20674;-66
2023/03/15 02:23:54;;;;;;;2.10;1.07;;;2.00;99.90;;;;;;5077964;28;20199;-66
2023/03/15 02:26:27;;;;;;;2.83;1.20;;;1.90;99.90;;;;;;5082926;28;20218;-66
2023/03/15 02:28:56;;;;;;;2.47;1.20;;;1.90;99.90;;;;;;5070105;28;20426;-66
2023/03/15 02:31:23;;;;;;;5.17;1.40;;;1.90;99.90;;;;;;5075184;28;20199;-66
2023/03/15 02:33:51;;;;;;;6.40;1.33;;;1.90;99.90;;;;;;5067209;28;21110;-66
2023/03/15 02:36:20;;;;;;;4.53;1.43;;;1.90;99.90;;;;;;5050598;28;21546;-66
2023/03/15 02:38:48;;;;;;;3.33;1.10;;;1.90;99.90;;;;;;5077567;28;20199;-66
2023/03/15 02:41:18;;;;;;;2.90;1.10;;;1.90;99.90;;;;;;5065257;28;20335;-66
2023/03/15 02:43:47;;;;;;;1.50;1.10;;;1.80;99.90;;;;;;5078069;28;20194;-66
2023/03/15 02:46:16;;;;;;;4.97;1.50;;;1.80;99.90;;;;;;5064477;28;20194;-66
2023/03/15 02:48:44;;;;;;;4.23;1.20;;;1.80;99.90;;;;;;5080579;28;20197;-66
2023/03/15 02:51:19;;;;;;;4.80;1.50;;;1.70;99.90;;;;;;5046033;28;20803;-66
2023/03/15 02:53:46;;;;;;;2.57;1.23;;;1.60;99.90;;;;;;5058316;28;20210;-66
2023/03/15 02:56:13;;;;;;;2.43;1.03;;;1.50;99.90;;;;;;5057301;28;20611;-66
2023/03/15 02:58:39;;;;;;;1.90;0.90;;;1.50;99.90;;;;;;5063956;28;20289;-66
2023/03/15 03:01:07;;;;;;;5.10;1.43;;;1.60;99.90;;;;;;5051142;28;20750;-66
2023/03/15 03:03:35;;;;;;;2.27;1.10;;;1.60;99.90;;;;;;5065049;28;20198;-66
2023/03/15 03:06:02;;;;;;;6.13;1.70;;;1.50;99.90;;;;;;5034856;28;20194;-66
2023/03/15 03:08:28;;;;;;;4.33;1.30;;;1.20;99.90;;;;;;5062627;28;20202;-66
2023/03/15 03:10:55;;;;;;;3.47;1.00;;;1.50;99.90;;;;;;5059777;28;20476;-66
2023/03/15 03:13:22;;;;;;;6.17;1.50;;;1.40;99.90;;;;;;5057539;28;20288;-66
2023/03/15 03:15:57;;;;;;;6.77;1.50;;;1.40;99.90;;;;;;5061411;28;20775;-66
2023/03/15 03:18:24;;;;;;;5.43;1.00;;;1.40;99.90;;;;;;5050074;28;20200;-66
2023/03/15 03:20:55;;;;;;;2.80;1.30;;;1.40;99.90;;;;;;5061040;28;20847;-66
2023/03/15 03:23:24;;;;;;;7.63;1.50;;;1.40;99.90;;;;;;5031087;28;20398;-66
2023/03/15 03:25:52;;;;;;;5.13;1.40;;;1.40;99.90;;;;;;5063166;28;20209;-66
2023/03/15 03:28:19;;;;;;;1.27;1.00;;;1.40;99.90;;;;;;5051319;28;20440;-66
2023/03/15 03:30:46;;;;;;;6.53;0.83;;;1.40;99.90;;;;;;5067991;28;20206;-66
2023/03/15 03:33:13;;;;;;;2.10;1.00;;;1.50;99.90;;;;;;5048038;28;20206;-66
2023/03/15 03:35:41;;;;;;;2.27;0.97;;;1.50;99.90;;;;;;5035576;28;20237;-66
2023/03/15 03:38:10;;;;;;;5.00;1.70;;;1.50;99.90;;;;;;5033605;28;27562;-66
2023/03/15 03:40:37;;;;;;;2.70;0.90;;;1.50;99.90;;;;;;5042553;28;20227;-66
2023/03/15 03:43:04;;;;;;;1.53;0.90;;;1.40;99.90;;;;;;5032569;28;20559;-66
2023/03/15 03:45:31;;;;;;;3.13;0.80;;;1.40;99.90;;;;;;5056041;28;20699;-66
2023/03/15 03:47:57;;;;;;;4.83;1.20;;;1.40;99.90;;;;;;5049869;28;20735;-66
2023/03/15 03:50:24;;;;;;;8.53;1.57;;;1.40;99.90;;;;;;5048720;28;20211;-66
2023/03/15 03:52:51;;;;;;;1.50;0.90;;;1.40;99.90;;;;;;5038198;28;28373;-66
2023/03/15 03:55:23;;;;;;;3.17;1.33;;;1.40;99.90;;;;;;5079678;28;20202;-66
2023/03/15 03:57:51;;;;;;;2.47;1.03;;;1.30;99.90;;;;;;5068727;27;20410;-66
2023/03/15 04:00:19;;;;;;;1.63;1.07;;;1.20;99.90;;;;;;5069140;27;20703;-66
2023/03/15 04:02:45;;;;;;;1.80;0.67;;;1.20;99.90;;;;;;5074652;27;20206;-66
2023/03/15 04:05:13;;;;;;;4.83;1.47;;;1.20;99.90;;;;;;5052005;28;20198;-66
2023/03/15 04:07:40;;;;;;;1.37;1.03;;;1.20;99.90;;;;;;5076963;28;20204;-66
2023/03/15 04:10:07;;;;;;;2.40;0.90;;;1.20;99.90;;;;;;5046272;27;20240;-66
2023/03/15 04:12:35;;;;;;;7.13;1.30;;;1.20;99.90;;;;;;5048601;28;20225;-66
2023/03/15 04:15:02;;;;;;;2.57;0.90;;;1.30;99.90;;;;;;5039198;28;20745;-66
2023/03/15 04:17:29;;;;;;;1.23;0.80;;;1.20;99.90;;;;;;5074890;27;20517;-66
2023/03/15 04:19:56;;;;;;;6.83;1.00;;;1.20;99.90;;;;;;5059464;28;20301;-66
2023/03/15 04:22:22;;;;;;;2.87;1.20;;;1.20;99.90;;;;;;5065661;27;20237;-66
2023/03/15 04:24:49;;;;;;;5.53;1.10;;;1.20;99.90;;;;;;5055929;27;20208;-66
2023/03/15 04:27:16;;;;;;;10.10;1.30;;;1.20;99.90;;;;;;5082642;27;20478;-66
2023/03/15 04:29:45;;;;;;;2.67;1.27;;;1.20;99.90;;;;;;5050846;27;20206;-66
2023/03/15 04:32:12;;;;;;;7.03;1.27;;;1.20;99.90;;;;;;5081642;27;20597;-66
2023/03/15 04:34:38;;;;;;;4.40;1.23;;;1.10;99.90;;;;;;5079318;27;20218;-66
2023/03/15 04:37:06;;;;;;;1.13;1.00;;;1.10;99.90;;;;;;5061365;28;20216;-66
2023/03/15 04:39:32;;;;;;;5.93;1.30;;;1.10;99.90;;;;;;5053310;27;20461;-66
2023/03/15 04:41:59;;;;;;;4.03;1.47;;;1.10;99.90;;;;;;5081170;27;20230;-66
2023/03/15 04:44:26;;;;;;;3.53;1.47;;;1.10;99.90;;;;;;5083534;27;20293;-66
2023/03/15 04:46:55;;;;;;;2.30;1.10;;;1.10;99.90;;;;;;5066590;27;20195;-66
2023/03/15 04:49:22;;;;;;;3.27;1.60;;;1.10;99.90;;;;;;5077777;28;20408;-66
2023/03/15 04:51:48;;;;;;;1.20;1.00;;;1.00;99.90;;;;;;5048602;28;20389;-66
2023/03/15 04:54:15;;;;;;;2.80;1.20;;;1.00;99.90;;;;;;5082833;27;20504;-66
2023/03/15 04:56:42;;;;;;;4.87;1.57;;;1.10;99.90;;;;;;5047223;27;20739;-66
2023/03/15 04:59:09;;;;;;;2.57;1.13;;;1.10;99.90;;;;;;5074069;28;20191;-66
2023/03/15 05:01:36;;;;;;;5.23;1.17;;;1.10;99.90;;;;;;5064897;28;20237;-66
2023/03/15 05:04:05;;;;;;;4.50;1.20;;;1.10;99.90;;;;;;5079284;27;20201;-66
2023/03/15 05:06:31;;;;;;;1.93;0.90;;;1.10;99.90;;;;;;5075860;27;20203;-66
2023/03/15 05:08:58;;;;;;;6.20;1.40;;;1.20;99.90;;;;;;5076970;27;20206;-66
2023/03/15 05:11:25;;;;;;;2.53;1.30;;;1.20;99.90;;;;;;5049939;28;20237;-66
2023/03/15 05:13:52;;;;;;;5.63;1.40;;;1.10;99.90;;;;;;5074485;28;20307;-66
2023/03/15 05:16:19;;;;;;;1.77;1.23;;;1.10;99.90;;;;;;5065808;27;20501;-66
2023/03/15 05:18:45;;;;;;;5.93;1.20;;;1.00;99.90;;;;;;5074349;27;20223;-66
2023/03/15 05:21:14;;;;;;;5.27;1.17;;;1.00;99.90;;;;;;5072693;27;20233;-66
2023/03/15 05:23:41;;;;;;;1.10;1.00;;;1.00;99.90;;;;;;5063485;28;20233;-66
2023/03/15 05:26:07;;;;;;;2.50;1.20;;;1.00;99.90;;;;;;5053290;27;20690;-65
2023/03/15 05:28:34;;;;;;;3.17;1.43;;;1.00;99.90;;;;;;5078114;28;20589;-66
2023/03/15 05:31:02;;;;;;;6.77;1.50;;;1.00;99.90;;;;;;5080968;28;20203;-66
2023/03/15 05:33:30;;;;;;;5.67;1.60;;;1.00;99.90;;;;;;5054139;28;20441;-66
2023/03/15 05:35:57;;;;;;;6.20;1.10;;;1.00;99.90;;;;;;5082828;27;20693;-66
2023/03/15 05:38:26;;;;;;;7.17;1.20;;;1.00;99.90;;;;;;5055758;27;20210;-66
2023/03/15 05:40:53;;;;;;;3.87;1.00;;;1.00;99.90;;;;;;5081771;28;20225;-65
2023/03/15 05:43:20;;;;;;;4.37;1.50;;;1.00;99.90;;;;;;5038795;27;20316;-65
2023/03/15 05:45:48;;;;;;;3.77;1.40;;;1.00;99.90;;;;;;5081323;28;20416;-65
2023/03/15 05:48:15;;;;;;;3.10;1.13;;;1.10;99.90;;;;;;5069690;27;20199;-65
2023/03/15 05:50:42;;;;;;;6.73;1.43;;;1.10;99.90;;;;;;5082783;28;20295;-66
2023/03/15 05:53:10;;;;;;;3.33;1.20;;;1.10;99.90;;;;;;5070169;27;20224;-66
2023/03/15 05:55:38;;;;;;;3.10;1.37;;;1.10;99.90;;;;;;5070639;27;20444;-66
2023/03/15 05:58:05;;;;;;;2.63;1.50;;;1.20;99.90;;;;;;5046511;27;20225;-66
2023/03/15 06:00:32;;;;;;;6.13;1.40;;;1.20;99.90;;;;;;5077552;27;20198;-66
2023/03/15 06:02:59;;;;;;;3.17;1.30;;;1.20;99.90;;;;;;5063646;28;20211;-66
2023/03/15 06:05:26;;;;;;;4.30;1.57;;;1.20;99.90;;;;;;5075060;27;20226;-66
2023/03/15 06:07:53;;;;;;;9.50;1.20;;;1.20;99.90;;;;;;5060301;27;20558;-66
2023/03/15 06:10:20;;;;;;;18.20;1.43;;;1.20;99.90;;;;;;5068484;28;20212;-66
2023/03/15 06:12:49;;;;;;;6.23;1.23;;;1.30;99.90;;;;;;5045592;27;20423;-65
2023/03/15 06:15:16;;;;;;;5.00;1.47;;;1.30;99.90;;;;;;5075817;27;20208;-65
2023/03/15 06:17:42;;;;;;;3.03;1.30;;;1.30;99.90;;;;;;5075248;28;20525;-66
2023/03/15 06:20:11;;;;;;;3.93;1.57;;;1.40;99.90;;;;;;5063465;28;20246;-65
2023/03/15 06:22:38;;;;;;;4.43;1.20;;;1.40;99.90;;;;;;5066319;27;20226;-66
2023/03/15 06:25:05;;;;;;;4.07;1.37;;;1.40;99.90;;;;;;5069546;28;20209;-66
2023/03/15 06:27:32;;;;;;;2.83;1.10;;;1.40;99.90;;;;;;5051987;28;20216;-66
2023/03/15 06:30:00;;;;;;;6.03;1.10;;;1.50;99.90;;;;;;5087689;28;20193;-66
2023/03/15 06:32:27;;;;;;;2.40;1.37;;;1.40;99.90;;;;;;5081874;28;20865;-66
2023/03/15 06:34:54;;;;;;;2.60;1.03;;;1.40;99.90;;;;;;5072238;28;20198;-66
2023/03/15 06:37:21;;;;;;;2.10;1.03;;;1.40;99.90;;;;;;5081425;27;20199;-66
2023/03/15 06:39:49;;;;;;;3.63;1.17;;;1.40;99.90;;;;;;5069644;27;20205;-66
2023/03/15 06:42:17;;;;;;;2.93;1.27;;;1.40;99.90;;;;;;5071729;27;20580;-66
2023/03/15 06:44:43;;;;;;;2.77;1.20;;;1.40;99.90;;;;;;5068648;27;20256;-66
2023/03/15 06:47:12;;;;;;;4.73;1.40;;;1.60;99.90;;;;;;5091355;27;20208;-66
2023/03/15 06:49:39;;;;;;;4.70;1.60;;;1.60;99.90;;;;;;5071126;27;21083;-66
2023/03/15 06:52:07;;;;;;;4.73;1.30;;;1.60;99.90;;;;;;5070766;27;20595;-66
2023/03/15 06:54:33;;;;;;;7.60;1.50;;;1.60;99.90;;;;;;5068618;27;20370;-66
2023/03/15 06:57:00;;;;;;;3.57;0.97;;;1.60;99.90;;;;;;5074859;27;20203;-66
2023/03/15 06:59:27;;;;;;;9.00;1.43;;;1.60;99.90;;;;;;5054095;27;20212;-66
2023/03/15 07:01:54;;;;;;;3.23;1.17;;;1.60;99.90;;;;;;5087822;27;20593;-66
2023/03/15 07:04:22;;;;;;;5.80;1.40;;;1.60;99.90;;;;;;5082525;27;20202;-66
2023/03/15 07:06:49;;;;;;;6.43;1.90;;;1.60;99.90;;;;;;5063817;27;20202;-66
2023/03/15 07:09:15;;;;;;;5.37;1.07;;;1.60;99.90;;;;;;5086177;27;20675;-65
2023/03/15 07:11:42;;;;;;;2.43;0.93;;;1.60;99.90;;;;;;5061778;27;20485;-66
2023/03/15 07:14:09;;;;;;;1.80;1.00;;;1.60;99.90;;;;;;5050911;27;20218;-66
2023/03/15 07:16:36;;;;;;;4.60;1.33;;;1.70;99.90;;;;;;5079472;27;20851;-66
2023/03/15 07:19:03;;;;;;;3.47;1.50;;;1.80;99.90;;;;;;5082309;27;20777;-66
2023/03/15 07:21:31;;;;;;;2.57;1.07;;;1.80;99.90;;;;;;5078457;27;20218;-66
2023/03/15 07:23:58;;;;;;;3.47;1.37;;;1.90;99.90;;;;;;5081446;27;20372;-66
2023/03/15 07:26:25;;;;;;;7.60;1.57;;;1.80;99.90;;;;;;5069001;27;20218;-66
2023/03/15 07:28:51;;;;;;;3.20;1.20;;;1.90;99.90;;;;;;5063086;27;20574;-66
2023/03/15 07:31:18;;;;;;;6.50;1.30;;;1.90;99.90;;;;;;5045936;27;20802;-66
2023/03/15 07:33:45;;;;;;;1.23;0.87;;;2.00;99.90;;;;;;5083601;27;20200;-66
2023/03/15 07:36:12;;;;;;;5.50;1.37;;;2.00;99.90;;;;;;5084681;27;20192;-66
2023/03/15 07:38:41;;;;;;;3.03;1.40;;;2.10;99.90;;;;;;5079285;27;20332;-66
2023/03/15 07:41:08;;;;;;;1.93;1.10;;;2.10;99.90;;;;;;5083922;27;21239;-66
2023/03/15 07:43:35;;;;;;;7.00;1.30;;;2.20;99.90;;;;;;5057520;22;20229;-66
2023/03/15 07:46:02;;;;;;;6.50;1.40;;;2.20;99.90;;;;;;5045511;27;20221;-66
2023/03/15 07:48:30;;;;;;;7.63;1.40;;;2.20;99.90;;;;;;5091731;27;20199;-66
2023/03/15 07:50:56;;;;;;;3.10;1.13;;;2.20;99.90;;;;;;5112638;27;20209;-66
2023/03/15 07:53:23;;;;;;;4.27;1.10;;;2.20;99.90;;;;;;5095145;27;20210;-66
2023/03/15 07:55:51;;;;;;;4.90;1.53;;;2.20;99.90;;;;;;5107791;27;22585;-66
2023/03/15 07:58:18;;;;;;;3.87;1.50;;;2.20;99.90;;;;;;5089355;27;20209;-66
2023/03/15 08:00:45;;;;;;;4.10;1.23;;;2.20;99.90;;;;;;5100241;27;20418;-66
2023/03/15 08:03:12;;;;;;;3.80;1.30;;;2.30;99.90;;;;;;5075849;27;20719;-66
2023/03/15 08:05:38;;;;;;;5.50;1.27;;;2.30;99.90;;;;;;5104665;27;20406;-66
2023/03/15 08:08:06;;;;;;;3.97;1.10;;;2.40;99.90;;;;;;5106645;27;20194;-66
2023/03/15 08:10:33;;;;;;;7.60;1.20;;;2.40;99.90;;;;;;5102918;27;20217;-66
2023/03/15 08:13:01;;;;;;;4.87;1.10;;;2.50;99.90;;;;;;5094655;27;20683;-66
2023/03/15 08:15:28;;;;;;;11.57;1.83;;;2.50;99.90;;;;;;5099225;27;20206;-66
2023/03/15 08:17:54;;;;;;;5.03;1.60;;;2.50;99.90;;;;;;5077511;27;20202;-66
2023/03/15 08:20:21;;;;;;;4.20;1.40;;;2.60;99.90;;;;;;5107732;27;20198;-66
2023/03/15 08:22:50;;;;;;;2.17;0.80;;;2.70;99.90;;;;;;5094503;27;20229;-66
2023/03/15 08:25:19;;;;;;;3.80;1.30;;;2.70;99.90;;;;;;5105456;27;20292;-66
2023/03/15 08:27:45;;;;;;;2.90;1.20;;;2.80;99.90;;;;;;5100268;27;20210;-66
2023/03/15 08:30:15;;;;;;;4.90;1.40;;;2.80;99.90;;;;;;5092524;27;21119;-66
2023/03/15 08:32:43;;;;;;;3.13;1.20;;;2.90;99.90;;;;;;5072563;27;20225;-66
2023/03/15 08:35:12;;;;;;;1.47;1.03;;;3.00;99.90;;;;;;5099726;27;20198;-66
2023/03/15 08:37:39;;;;;;;5.43;1.13;;;3.00;99.90;;;;;;5104509;27;20211;-66
2023/03/15 08:40:09;;;;;;;3.00;1.00;;;3.10;99.90;;;;;;5106126;27;20214;-66
2023/03/15 08:42:36;;;;;;;5.53;1.67;;;3.10;99.90;;;;;;5096049;27;20323;-66
2023/03/15 08:45:03;;;;;;;3.30;1.03;;;3.20;99.90;;;;;;5070096;28;20432;-66
2023/03/15 08:47:34;;;;;;;6.93;1.27;;;3.20;99.90;;;;;;5054133;28;20207;-66
2023/03/15 08:50:00;;;;;;;13.57;1.50;;;3.30;99.90;;;;;;5080780;28;20603;-66
2023/03/15 08:52:27;;;;;;;4.40;1.47;;;3.40;99.90;;;;;;5086025;28;20312;-66
2023/03/15 08:54:54;;;;;;;7.83;1.50;;;3.50;99.90;;;;;;5073765;27;20611;-66
2023/03/15 08:57:24;;;;;;;3.53;1.10;;;3.50;99.90;;;;;;5088219;28;20572;-66
2023/03/15 08:59:51;;;;;;;7.30;1.40;;;3.60;99.90;;;;;;5070511;27;20227;-66
2023/03/15 09:02:18;;;;;;;3.60;1.47;;;3.70;99.90;;;;;;5084971;28;20223;-66
2023/03/15 09:04:46;;;;;;;3.53;1.23;;;3.70;99.90;;;;;;5054453;28;20590;-66
2023/03/15 09:07:14;;;;;;;4.33;0.83;;;3.70;99.90;;;;;;5083701;28;20191;-66
2023/03/15 09:09:46;;;;;;;4.03;1.23;;;3.80;99.90;;;;;;5082807;28;20425;-66
2023/03/15 09:12:14;;;;;;;5.20;1.20;;;3.90;99.90;;;;;;5081648;28;20195;-66
2023/03/15 09:14:40;;;;;;;5.10;1.57;;;4.00;99.90;;;;;;5074810;28;20226;-66
2023/03/15 09:17:07;;;;;;;4.63;1.17;;;4.10;99.90;;;;;;5071732;27;20416;-66
2023/03/15 09:19:34;;;;;;;5.03;1.33;;;4.20;99.90;;;;;;5058284;28;20218;-66
2023/03/15 09:22:02;;;;;;;6.33;1.13;;;4.20;99.90;;;;;;5080283;28;20247;-66
2023/03/15 09:24:29;;;;;;;3.53;1.30;;;4.40;99.90;;;;;;5082328;28;20294;-66
2023/03/15 09:26:56;;;;;;;6.83;1.57;;;4.40;99.90;;;;;;5080613;28;20668;-66
2023/03/15 09:29:23;;;;;;;3.90;1.00;;;4.50;99.90;;;;;;5083143;28;20377;-66
2023/03/15 09:31:50;;;;;;;4.03;1.37;;;4.50;99.90;;;;;;5071236;28;20211;-66
2023/03/15 09:34:17;;;;;;;6.20;1.30;;;4.60;99.90;;;;;;5054988;28;20205;-66
2023/03/15 09:36:43;;;;;;;5.77;1.40;;;4.50;99.90;;;;;;5084695;28;20191;-66
2023/03/15 09:39:12;;;;;;;6.80;1.30;;;4.50;99.90;;;;;;5083408;28;20766;-66
2023/03/15 09:41:43;;;;;;;4.00;0.93;;;4.40;99.90;;;;;;5081176;28;20310;-66
2023/03/15 09:44:22;;;;;;;3.20;1.10;;;4.60;99.90;;;;;;5097962;27;20709;-66
2023/03/15 09:47:03;;;;;;;1.93;0.87;;;4.60;99.90;;;;;;5104576;27;20472;-65
2023/03/15 09:49:37;;;;;;;3.90;1.20;;;3.70;99.90;;;;;;5075949;27;20616;-66
2023/03/15 09:52:14;;;;;;;1.83;0.90;;;3.20;99.90;;;;;;5102142;27;20199;-65
2023/03/15 09:54:49;;;;;;;1.03;0.40;;;3.00;99.90;;;;;;5104541;27;20200;-65
2023/03/15 09:57:21;;;;;;;0.83;0.60;;;2.70;99.90;;;;;;5100022;27;20356;-66
2023/03/15 09:59:52;;;;;;;0.73;0.53;;;2.40;99.90;;;;;;5103321;27;20199;-65
2023/03/15 10:02:23;;;;;;;0.90;0.50;;;2.30;99.90;;;;;;5093321;27;20659;-65
2023/03/15 10:04:55;;;;;;;3.43;0.70;;;2.20;99.90;;;;;;5101234;27;20405;-66
2023/03/15 10:07:22;;;;;;;3.20;0.77;;;2.00;99.90;;;;;;5082529;27;20848;-65
2023/03/15 10:09:50;;;;;;;0.40;0.40;;;2.10;99.90;;;;;;5102222;27;20205;-66
2023/03/15 10:12:23;;;;;;;2.30;0.80;;;2.10;99.90;;;;;;5101654;27;20208;-66
2023/03/15 10:15:03;;;;;;;2.13;0.87;;;2.20;99.90;;;;;;5100226;27;20198;-66
2023/03/15 10:17:39;;;;;;;0.50;0.50;;;2.20;99.90;;;;;;5089045;27;20784;-66
2023/03/15 10:20:12;;;;;;;2.57;0.90;;;2.10;99.90;;;;;;5078827;27;20594;-66
2023/03/15 10:22:46;;;;;;;3.50;0.43;;;2.20;99.90;;;;;;5103153;27;20255;-66
2023/03/15 10:25:17;;;;;;;1.50;0.57;;;2.20;99.90;;;;;;5091797;27;20444;-66
2023/03/15 10:27:48;;;;;;;3.93;0.70;;;2.30;99.90;;;;;;5101892;27;20200;-66
2023/03/15 10:30:18;;;;;;;1.00;0.77;;;2.40;99.90;;;;;;5100998;27;20452;-66
2023/03/15 10:32:50;;;;;;;0.80;0.50;;;2.40;99.90;;;;;;5102864;27;20198;-66
2023/03/15 10:35:19;;;;;;;0.90;0.80;;;2.50;99.90;;;;;;5083341;27;20207;-66
2023/03/15 10:37:46;;;;;;;0.53;0.47;;;2.50;99.90;;;;;;5070477;27;20208;-66
2023/03/15 10:40:15;;;;;;;2.93;1.30;;;2.50;99.90;;;;;;5095450;27;20202;-66
2023/03/15 10:42:44;;;;;;;2.30;1.20;;;2.60;99.90;;;;;;5098814;27;20242;-66
2023/03/15 10:45:22;;;;;;;1.20;0.80;;;2.70;99.90;;;;;;5075031;28;20866;-66
2023/03/15 10:47:50;;;;;;;2.10;0.80;;;3.10;99.90;;;;;;5076287;28;20199;-66
2023/03/15 10:50:24;;;;;;;3.23;0.70;;;2.90;99.90;;;;;;5064283;28;20334;-66
2023/03/15 10:52:55;;;;;;;3.97;0.70;;;2.90;99.90;;;;;;5047308;28;20212;-66
2023/03/15 10:55:32;;;;;;;4.80;0.50;;;3.00;99.90;;;;;;5080587;28;20398;-66
2023/03/15 10:58:12;;;;;;;3.77;1.17;;;3.10;99.90;;;;;;5080394;28;20245;-66
2023/03/15 11:00:38;;;;;;;3.67;0.60;;;3.40;99.90;;;;;;5083532;28;20202;-66
2023/03/15 11:03:07;;;;;;;5.70;0.83;;;3.60;99.90;;;;;;5076715;28;20734;-66
2023/03/15 11:05:42;;;;;;;2.63;1.00;;;3.50;99.90;;;;;;5071897;28;20209;-65
2023/03/15 11:08:14;;;;;;;3.13;0.63;;;3.40;99.90;;;;;;5047317;28;20539;-66
2023/03/15 11:10:43;;;;;;;0.60;0.50;;;3.10;99.90;;;;;;5083297;28;21012;-65
2023/03/15 11:13:19;;;;;;;2.87;0.70;;;3.00;99.90;;;;;;5076915;28;20202;-66
2023/03/15 11:15:54;;;;;;;3.60;0.70;;;2.80;99.90;;;;;;5082689;28;20250;-65
2023/03/15 11:18:26;;;;;;;5.60;0.80;;;2.80;99.90;;;;;;5077012;28;20699;-65
2023/03/15 11:20:56;;;;;;;0.83;0.70;;;2.60;99.90;;;;;;5067405;28;20198;-66
2023/03/15 11:23:26;;;;;;;4.57;1.10;;;2.40;99.90;;;;;;5057758;27;26881;-65
2023/03/15 11:25:55;;;;;;;3.17;0.53;;;2.30;99.90;;;;;;5079731;28;20811;-66
2023/03/15 11:28:25;;;;;;;4.53;0.93;;;2.30;99.90;;;;;;5081143;28;20693;-65
2023/03/15 11:30:53;;;;;;;1.10;0.60;;;2.20;99.90;;;;;;5077943;28;20639;-66
2023/03/15 11:33:32;;;;;;;2.63;0.87;;;2.30;99.90;;;;;;5081944;28;20192;-66
2023/03/15 11:36:03;;;;;;;2.53;0.90;;;2.30;99.90;;;;;;5079012;27;20200;-66
2023/03/15 11:38:33;;;;;;;2.83;0.80;;;2.40;99.90;;;;;;5080882;28;20200;-66
2023/03/15 11:41:10;;;;;;;8.43;0.93;;;2.40;99.90;;;;;;5053206;28;22040;-66
2023/03/15 11:43:47;;;;;;;1.53;0.80;;;2.40;99.90;;;;;;5084654;27;20733;-66
2023/03/15 11:46:20;;;;;;;1.87;0.50;;;2.50;99.90;;;;;;5079236;27;20196;-66
2023/03/15 11:48:51;;;;;;;4.00;1.10;;;2.50;99.90;;;;;;5082971;27;20886;-66
2023/03/15 11:51:18;;;;;;;5.20;1.17;;;2.60;99.90;;;;;;5069804;27;21042;-66
2023/03/15 11:53:49;;;;;;;5.00;0.93;;;2.70;99.90;;;;;;5087221;27;20222;-66
2023/03/15 11:56:25;;;;;;;1.57;0.77;;;2.70;99.90;;;;;;5052478;27;21063;-66
2023/03/15 11:59:03;;;;;;;6.77;0.93;;;2.70;99.90;;;;;;5078351;27;20207;-66
2023/03/15 12:01:30;;;;;;;1.60;0.50;;;2.80;99.90;;;;;;5077936;28;20545;-66
2023/03/15 12:04:31;;;;;;;1.87;0.40;;;2.90;99.90;;;;;;5076636;27;20231;-66
2023/03/15 12:07:02;;;;;;;4.30;0.93;;;3.00;99.90;;;;;;5081521;27;20205;-66
2023/03/15 12:09:51;;;;;;;1.37;0.60;;;3.20;99.90;;;;;;5077882;27;20399;-66
2023/03/15 12:12:40;;;;;;;3.93;0.63;;;3.10;99.90;;;;;;5051013;27;20429;-66
2023/03/15 12:15:46;;;;;;;3.67;0.80;;;3.20;99.90;;;;;;5078510;27;20732;-66
2023/03/15 12:18:27;;;;;;;0.87;0.57;;;3.30;99.90;;;;;;5078763;27;20226;-66
2023/03/15 12:21:16;;;;;;;1.03;0.80;;;3.40;99.90;;;;;;5076107;27;20911;-66
2023/03/15 12:23:48;;;;;;;1.00;0.60;;;3.40;99.90;;;;;;5072785;27;20711;-66
2023/03/15 12:26:30;;;;;;;1.23;0.43;;;3.40;99.90;;;;;;5052176;27;20209;-66
2023/03/15 12:29:12;;;;;;;1.37;0.93;;;3.60;99.90;;;;;;5078851;27;20192;-66
2023/03/15 12:31:52;;;;;;;1.77;0.70;;;3.70;99.90;;;;;;5081452;27;20208;-65
2023/03/15 12:34:30;;;;;;;4.07;0.67;;;3.80;99.90;;;;;;5069728;27;20470;-66
2023/03/15 12:37:00;;;;;;;2.40;0.53;;;3.90;99.90;;;;;;5073013;27;20219;-66
2023/03/15 12:39:41;;;;;;;3.33;0.70;;;3.90;99.90;;;;;;5072878;27;20579;-66
2023/03/15 12:42:31;;;;;;;1.17;0.60;;;3.90;99.90;;;;;;5043893;28;20203;-66
2023/03/15 12:45:36;;;;;;;1.10;0.70;;;3.90;99.90;;;;;;5097926;27;20751;-66
2023/03/15 12:48:27;;;;;;;1.10;0.60;;;4.00;99.90;;;;;;5081586;27;20200;-66
2023/03/15 12:51:34;;;;;;;0.53;0.53;;;4.10;99.90;;;;;;5101513;27;20194;-66
2023/03/15 12:54:03;;;;;;;1.00;0.90;;;4.10;99.90;;;;;;5087150;27;20213;-66
2023/03/15 12:56:40;;;;;;;2.73;0.83;;;4.10;99.90;;;;;;5075483;27;20208;-66
2023/03/15 12:59:31;;;;;;;2.40;0.70;;;4.20;99.90;;;;;;5105115;27;20285;-66
2023/03/15 13:02:00;;;;;;;3.00;1.03;;;4.20;99.90;;;;;;5100481;27;20286;-66
2023/03/15 13:04:30;;;;;;;4.03;1.00;;;4.20;99.90;;;;;;5102608;27;20211;-66
2023/03/15 13:07:18;;;;;;;2.97;0.60;;;4.20;99.90;;;;;;5096079;27;20222;-66
2023/03/15 13:10:05;;;;;;;8.70;0.90;;;4.20;99.90;;;;;;5092472;27;20247;-66
2023/03/15 13:12:40;;;;;;;1.27;0.90;;;4.30;99.90;;;;;;5074097;27;21066;-66